This is the latest recevied weather packets stored in our database for station/object KC8UZG. If no packets are shown the sender has not sent any weather packets the latest 10 day(s).
| Time | Temp. | Humidity | Pressure | Rain* | Wind** | Luminosity | Snow |
|---|---|---|---|---|---|---|---|
| 1777756540 | 9.44° C | 52% | - | 0 mm | - | 84 W/m² | - |
| 1777755919 | 9.44° C | 52% | - | 0 mm | - | 89 W/m² | - |
| 1777755325 | 10.56° C | 49% | - | 0 mm | - | 117 W/m² | - |
| 1777754730 | 10.56° C | 51% | - | 0 mm | - | 203 W/m² | - |
| 1777754137 | 10° C | 51% | - | 0 mm | - | 113 W/m² | - |
| 1777753515 | 10° C | 51% | - | 0 mm | - | 122 W/m² | - |
| 1777752921 | 10° C | 52% | - | 0 mm | - | 89 W/m² | - |
| 1777752327 | 11.11° C | 50% | - | 0 mm | - | 177 W/m² | - |
| 1777751733 | 11.11° C | 51% | - | 0 mm | - | 91 W/m² | - |
| 1777751139 | 10° C | 53% | - | 0 mm | - | 183 W/m² | - |
| 1777750519 | 9.44° C | 51% | - | 0 mm | - | 171 W/m² | - |
| 1777749924 | 10° C | 52% | - | 0 mm | - | 143 W/m² | - |
| 1777749331 | 10.56° C | 51% | - | 0 mm | - | 355 W/m² | - |
| 1777748736 | 10° C | 51% | - | 0 mm | - | 118 W/m² | - |
| 1777748115 | 10.56° C | 50% | 1017 hPa | 0 mm | - | 442 W/m² | - |
| 1777747521 | 11.11° C | 51% | 1016.8 hPa | 0 mm | - | 203 W/m² | - |
| 1777746927 | 10° C | 50% | 1017 hPa | 0 mm | - | 493 W/m² | - |
| 1777746333 | 10° C | 51% | 1017 hPa | 0 mm | - | 225 W/m² | - |
| 1777745739 | 10.56° C | 52% | 1017 hPa | 0 mm | - | 173 W/m² | - |
| 1777745119 | 10° C | 53% | 1017 hPa | 0 mm | - | 281 W/m² | - |
| 1777744524 | 10° C | 52% | 1017 hPa | 0 mm | - | 337 W/m² | - |
| 1777743931 | 10.56° C | 52% | 1017 hPa | 0 mm | - | 252 W/m² | - |
| 1777743336 | 10° C | 51% | 1017.4 hPa | 0 mm | - | 340 W/m² | - |
| 1777742715 | 10.56° C | 48% | 1017.4 hPa | 0 mm | - | 457 W/m² | - |
| 1777742121 | 10.56° C | 50% | - | 0 mm | - | 456 W/m² | - |
* Rain latest hour (hover to see other rain measurements)
** Current wind speed in m/s (hover to see current wind gust speed)